Time;durP1;ratioP1;P1;durP2;ratioP2;P2;SDS_P1;SDS_P2;PMS_P1;PMS_P2;Temp;Humidity;BMP_temperature;BMP_pressure;BME280_temperature;BME280_humidity;BME280_pressure;Samples;Min_cycle;Max_cycle;Signal;HPM_P1;HPM_P2
2022/10/08 00:00:54;;;;;;;10.70;1.73;;;12.90;99.90;;;;;;4993778;28;20061;-74
2022/10/08 00:03:22;;;;;;;14.45;2.25;;;12.90;99.90;;;;;;4993680;28;20054;-76
2022/10/08 00:06:07;;;;;;;14.30;2.63;;;12.90;99.90;;;;;;4992661;28;20051;-74
2022/10/08 00:08:36;;;;;;;14.00;2.63;;;12.80;99.90;;;;;;4993288;28;20077;-78
2022/10/08 00:11:08;;;;;;;11.93;1.90;;;12.80;99.90;;;;;;5009290;28;20042;-77
2022/10/08 00:13:39;;;;;;;12.27;2.10;;;12.70;99.90;;;;;;4992648;28;20152;-80
2022/10/08 00:16:22;;;;;;;8.55;2.30;;;12.60;99.90;;;;;;4993901;28;20351;-78
2022/10/08 00:18:50;;;;;;;18.30;2.47;;;12.50;99.90;;;;;;4993503;28;20090;-80
2022/10/08 00:21:19;;;;;;;13.93;3.00;;;12.50;99.90;;;;;;5008323;28;20066;-76
2022/10/08 00:23:46;;;;;;;13.05;2.35;;;;;;;;;;4993179;28;20038;-77
2022/10/08 00:26:13;;;;;;;17.13;2.80;;;12.30;99.90;;;;;;4992977;28;20049;-75
2022/10/08 00:28:42;;;;;;;14.90;3.40;;;12.20;99.90;;;;;;4992911;28;20386;-74
2022/10/08 00:31:20;;;;;;;12.27;2.75;;;12.20;99.90;;;;;;4993561;28;20120;-77
2022/10/08 00:33:50;;;;;;;11.02;2.88;;;12.20;99.90;;;;;;4993682;28;20056;-77
2022/10/08 00:36:16;;;;;;;14.88;3.00;;;12.20;99.90;;;;;;4993480;28;20058;-75
2022/10/08 00:38:42;;;;;;;14.52;2.53;;;12.30;99.90;;;;;;4991854;28;20038;-79
2022/10/08 00:41:18;;;;;;;11.82;3.55;;;12.30;99.90;;;;;;4994599;28;20058;-74
2022/10/08 00:43:53;;;;;;;20.25;3.22;;;12.10;99.90;;;;;;4996484;28;20057;-76
2022/10/08 00:46:24;;;;;;;14.95;3.80;;;12.10;99.90;;;;;;5000172;28;20062;-78
2022/10/08 00:49:17;;;;;;;15.95;3.88;;;12.10;99.90;;;;;;4999008;28;20546;-76
2022/10/08 00:51:49;;;;;;;11.82;3.20;;;12.10;99.90;;;;;;4994843;28;20486;-78
2022/10/08 00:54:17;;;;;;;11.32;3.30;;;12.30;99.90;;;;;;4997327;28;20121;-78
2022/10/08 00:56:43;;;;;;;9.75;2.65;;;12.20;99.90;;;;;;4997286;28;20419;-80
2022/10/08 00:59:11;;;;;;;13.90;3.30;;;12.20;99.90;;;;;;4995848;28;20042;-75
2022/10/08 01:01:41;;;;;;;15.93;3.85;;;12.30;99.90;;;;;;5012051;28;20375;-75
2022/10/08 01:04:08;;;;;;;13.82;4.03;;;12.10;99.90;;;;;;4995210;28;20092;-78
2022/10/08 01:06:34;;;;;;;;;;;12.10;99.90;;;;;;4979947;28;20049;-78
2022/10/08 01:09:15;;;;;;;11.17;4.30;;;12.00;99.90;;;;;;4996270;28;20336;-77
2022/10/08 01:11:52;;;;;;;14.32;4.43;;;12.00;99.90;;;;;;4997012;28;20159;-77
2022/10/08 01:14:40;;;;;;;15.73;5.07;;;12.00;99.90;;;;;;4996539;28;20054;-79
2022/10/08 01:17:08;;;;;;;16.17;5.40;;;12.00;99.90;;;;;;4996383;28;20170;-78
2022/10/08 01:19:52;;;;;;;22.05;5.53;;;12.00;99.90;;;;;;4995318;28;20046;-76
2022/10/08 01:22:51;;;;;;;15.85;5.30;;;12.00;99.90;;;;;;4996588;28;20073;-78
2022/10/08 01:25:39;;;;;;;13.27;4.63;;;12.00;99.90;;;;;;4995914;28;20455;-79
2022/10/08 01:28:04;;;;;;;12.95;5.07;;;12.00;99.90;;;;;;4996784;28;20046;-79
2022/10/08 01:30:34;;;;;;;15.43;4.65;;;11.90;99.90;;;;;;4995907;28;20491;-80
2022/10/08 01:33:11;;;;;;;15.57;5.28;;;12.00;99.90;;;;;;4994620;28;20050;-78
2022/10/08 01:35:43;;;;;;;13.57;4.88;;;11.90;99.90;;;;;;4995638;28;20046;-77
2022/10/08 01:38:12;;;;;;;13.82;5.13;;;11.90;99.90;;;;;;4994648;28;20046;-78
2022/10/08 01:40:40;;;;;;;11.40;4.00;;;11.90;99.90;;;;;;4994624;28;20149;-80
2022/10/08 01:43:09;;;;;;;13.48;4.38;;;11.90;99.90;;;;;;4995701;28;20054;-78
2022/10/08 01:45:40;;;;;;;9.32;4.03;;;11.90;99.90;;;;;;4995549;28;20161;-78
2022/10/08 01:48:13;;;;;;;10.60;4.50;;;11.80;99.90;;;;;;5011199;28;20047;-78
2022/10/08 01:51:01;;;;;;;14.20;4.22;;;11.70;99.90;;;;;;4995711;28;20054;-78
2022/10/08 01:53:33;;;;;;;11.95;4.15;;;11.70;99.90;;;;;;4994509;28;20058;-77
2022/10/08 01:56:02;;;;;;;11.23;4.30;;;11.70;99.90;;;;;;5010291;28;20162;-77
2022/10/08 01:58:42;;;;;;;16.05;4.00;;;11.70;99.90;;;;;;4995555;28;20157;-78
2022/10/08 02:01:14;;;;;;;13.77;3.90;;;11.70;99.90;;;;;;4994459;28;20057;-78
2022/10/08 02:04:31;;;;;;;16.77;4.00;;;11.90;99.90;;;;;;4995150;28;20485;-79
2022/10/08 02:06:29;;;;;;;14.93;4.40;;;12.00;99.90;;;;;;4995461;28;20466;-78
2022/10/08 02:08:55;;;;;;;13.38;4.05;;;11.90;99.90;;;;;;5000066;28;20124;-78
2022/10/08 02:11:20;;;;;;;15.68;4.20;;;11.80;99.90;;;;;;5002783;28;20077;-77
2022/10/08 02:13:46;;;;;;;8.20;3.10;;;11.80;99.90;;;;;;5012963;28;20105;-74
2022/10/08 02:16:25;;;;;;;10.77;4.13;;;11.80;99.90;;;;;;5001341;28;20085;-77
2022/10/08 02:19:14;;;;;;;9.88;3.60;;;11.90;99.90;;;;;;4995727;28;20133;-76
2022/10/08 02:21:41;;;;;;;9.68;4.10;;;11.80;99.90;;;;;;4993616;28;20130;-77
2022/10/08 02:24:10;;;;;;;9.32;3.15;;;11.80;99.90;;;;;;4995035;28;20078;-75
2022/10/08 02:26:48;;;;;;;11.75;3.85;;;11.80;99.90;;;;;;4994843;28;20050;-79
2022/10/08 02:29:37;;;;;;;13.77;3.53;;;11.70;99.90;;;;;;4993908;28;20432;-76
2022/10/08 02:32:21;;;;;;;10.02;3.10;;;11.70;99.90;;;;;;4995034;28;20129;-77
2022/10/08 02:34:56;;;;;;;10.82;3.13;;;11.70;99.90;;;;;;4995046;28;20042;-78
2022/10/08 02:37:34;;;;;;;10.52;3.00;;;11.70;99.90;;;;;;4995727;28;20046;-79
2022/10/08 02:40:08;;;;;;;10.73;3.22;;;11.60;99.90;;;;;;4994627;28;20056;-79
2022/10/08 02:42:36;;;;;;;10.55;3.00;;;11.60;99.90;;;;;;4993126;28;20050;-79
2022/10/08 02:45:25;;;;;;;11.77;3.22;;;11.50;99.90;;;;;;4994481;28;20050;-79
2022/10/08 02:48:00;;;;;;;10.25;3.00;;;11.40;99.90;;;;;;4993681;28;20046;-77
2022/10/08 02:50:27;;;;;;;9.80;3.13;;;11.40;99.90;;;;;;4994522;28;20173;-75
2022/10/08 02:52:54;;;;;;;13.40;3.10;;;11.40;99.90;;;;;;4993452;28;20486;-75
2022/10/08 02:55:56;;;;;;;12.05;3.20;;;11.30;99.90;;;;;;4994902;28;20042;-78
2022/10/08 02:58:21;;;;;;;13.80;3.00;;;11.30;99.90;;;;;;4993676;28;20065;-79
2022/10/08 03:00:57;;;;;;;11.20;2.83;;;11.20;99.90;;;;;;4994517;28;20046;-78
2022/10/08 03:03:36;;;;;;;10.07;2.72;;;11.20;99.90;;;;;;4995062;28;20050;-79
2022/10/08 03:06:06;;;;;;;9.15;2.60;;;11.10;99.90;;;;;;4994913;28;20074;-78
2022/10/08 03:08:34;;;;;;;9.27;2.50;;;11.10;99.90;;;;;;4994015;28;20119;-77
2022/10/08 03:11:00;;;;;;;11.98;2.90;;;11.00;99.90;;;;;;4994670;28;20387;-79
2022/10/08 03:13:26;;;;;;;9.30;2.35;;;10.90;99.90;;;;;;4994051;28;20053;-78
2022/10/08 03:15:53;;;;;;;9.77;2.83;;;10.80;99.90;;;;;;4994637;28;20340;-78
2022/10/08 03:18:20;;;;;;;12.85;3.45;;;10.70;99.90;;;;;;4994571;28;20463;-79
2022/10/08 03:20:49;;;;;;;10.48;2.88;;;10.70;99.90;;;;;;4993878;28;20379;-77
2022/10/08 03:23:17;;;;;;;14.35;2.95;;;10.70;99.90;;;;;;4994014;28;20101;-79
2022/10/08 03:25:43;;;;;;;12.00;2.72;;;10.60;99.90;;;;;;4993115;28;20069;-78
2022/10/08 03:28:09;;;;;;;14.00;3.10;;;10.60;99.90;;;;;;4994206;28;20061;-80
2022/10/08 03:30:34;;;;;;;6.78;2.50;;;10.60;99.90;;;;;;4992555;28;20162;-79
2022/10/08 03:33:00;;;;;;;8.88;2.58;;;10.60;99.90;;;;;;4993110;28;20478;-78
2022/10/08 03:35:26;;;;;;;10.15;2.72;;;10.50;99.90;;;;;;4992364;28;20038;-77
2022/10/08 03:37:52;;;;;;;12.10;3.03;;;10.50;99.90;;;;;;4994154;28;20104;-81
2022/10/08 03:40:21;;;;;;;13.60;2.80;;;10.50;99.90;;;;;;4993301;28;20144;-77
2022/10/08 03:42:47;;;;;;;10.98;2.90;;;10.40;99.90;;;;;;4993271;28;20137;-79
2022/10/08 03:45:13;;;;;;;9.13;2.42;;;10.40;99.90;;;;;;4993502;28;20121;-77
2022/10/08 03:47:39;;;;;;;11.88;2.92;;;10.40;99.90;;;;;;4992213;28;20042;-80
2022/10/08 03:50:05;;;;;;;14.77;2.92;;;10.40;99.90;;;;;;4976159;28;20467;-76
2022/10/08 03:52:30;;;;;;;19.60;3.05;;;10.40;99.90;;;;;;4991736;28;20159;-77
2022/10/08 03:54:56;;;;;;;9.10;2.70;;;10.40;99.90;;;;;;4991700;28;20109;-78
2022/10/08 03:57:22;;;;;;;10.07;2.90;;;10.40;99.90;;;;;;4993472;28;20046;-79
2022/10/08 03:59:47;;;;;;;10.95;3.20;;;10.30;99.90;;;;;;4991578;28;20086;-76
2022/10/08 04:02:13;;;;;;;15.10;3.38;;;10.30;99.90;;;;;;4993175;28;20048;-77
2022/10/08 04:04:39;;;;;;;18.58;3.60;;;10.30;99.90;;;;;;4992690;28;20046;-77
2022/10/08 04:07:05;;;;;;;13.32;3.42;;;10.30;99.90;;;;;;4993350;28;20053;-77
2022/10/08 04:09:31;;;;;;;16.13;3.50;;;10.30;99.90;;;;;;4993392;28;20050;-76
2022/10/08 04:11:56;;;;;;;14.90;4.00;;;10.30;99.90;;;;;;4992429;28;20134;-76
2022/10/08 04:14:22;;;;;;;22.70;3.83;;;10.30;99.90;;;;;;4991589;28;20045;-76
2022/10/08 04:16:48;;;;;;;18.42;3.90;;;10.40;99.90;;;;;;4991895;28;20054;-80
2022/10/08 04:19:13;;;;;;;12.02;3.60;;;10.40;99.90;;;;;;4992801;28;20046;-77
2022/10/08 04:21:39;;;;;;;18.65;3.45;;;10.40;99.90;;;;;;4993497;28;20407;-78
2022/10/08 04:24:06;;;;;;;17.20;3.42;;;10.50;99.90;;;;;;4993663;28;20070;-78
2022/10/08 04:26:31;;;;;;;12.77;3.60;;;10.60;99.90;;;;;;4993063;28;20122;-76
2022/10/08 04:28:57;;;;;;;15.57;3.50;;;10.60;99.90;;;;;;4992862;28;20054;-76
2022/10/08 04:31:23;;;;;;;11.80;3.38;;;10.60;99.90;;;;;;4993456;28;20057;-76
2022/10/08 04:33:50;;;;;;;10.80;2.95;;;10.60;99.90;;;;;;5007966;28;20058;-76
2022/10/08 04:36:21;;;;;;;13.30;3.40;;;10.60;99.90;;;;;;4991562;28;20046;-78
2022/10/08 04:38:48;;;;;;;16.40;3.65;;;10.70;99.90;;;;;;4992916;28;20046;-75
2022/10/08 04:41:22;;;;;;;15.85;3.45;;;10.80;99.90;;;;;;4992825;28;20418;-75
2022/10/08 04:43:48;;;;;;;12.55;3.20;;;10.80;99.90;;;;;;4993194;28;20058;-76
2022/10/08 04:46:17;;;;;;;14.63;3.47;;;10.80;99.90;;;;;;4993838;28;20133;-77
2022/10/08 04:48:51;;;;;;;13.23;3.20;;;10.90;99.90;;;;;;4996365;28;20379;-76
2022/10/08 04:51:18;;;;;;;14.52;3.30;;;10.90;99.90;;;;;;4998935;28;20054;-79
2022/10/08 04:53:43;;;;;;;;;;;10.80;99.90;;;;;;4998470;28;20043;-81
2022/10/08 04:56:13;;;;;;;15.07;3.60;;;10.90;99.90;;;;;;4996810;28;19944;-78
2022/10/08 04:58:39;;;;;;;15.98;3.65;;;10.80;99.90;;;;;;4994489;28;20050;-78
2022/10/08 05:01:06;;;;;;;13.60;3.50;;;10.80;99.90;;;;;;4991856;28;20080;-77
2022/10/08 05:03:39;;;;;;;12.50;3.25;;;10.80;99.90;;;;;;4993478;28;20133;-78
2022/10/08 05:06:05;;;;;;;13.13;3.33;;;10.70;99.90;;;;;;4995724;28;20121;-75
2022/10/08 05:08:31;;;;;;;11.00;3.35;;;10.70;99.90;;;;;;4995631;28;20077;-75
2022/10/08 05:10:57;;;;;;;16.13;3.73;;;10.80;99.90;;;;;;5008874;28;20150;-80
2022/10/08 05:13:23;;;;;;;10.98;3.28;;;10.80;99.90;;;;;;5012998;28;20027;-75
2022/10/08 05:15:48;;;;;;;13.75;3.00;;;10.90;99.90;;;;;;5002141;28;20046;-77
2022/10/08 05:18:14;;;;;;;17.38;3.05;;;10.80;99.90;;;;;;4976799;28;20055;-76
2022/10/08 05:20:40;;;;;;;16.73;3.55;;;10.80;99.90;;;;;;4997108;28;20049;-80
2022/10/08 05:23:06;;;;;;;12.77;3.42;;;10.80;99.90;;;;;;5008694;28;20046;-78
2022/10/08 05:25:33;;;;;;;13.68;3.05;;;10.70;99.90;;;;;;4995400;28;20100;-78
2022/10/08 05:27:59;;;;;;;13.00;3.40;;;10.70;99.90;;;;;;4993680;28;20390;-77
2022/10/08 05:30:25;;;;;;;14.40;3.85;;;10.70;99.90;;;;;;4976228;28;20120;-77
2022/10/08 05:32:50;;;;;;;18.52;3.60;;;10.50;99.90;;;;;;4996265;28;20054;-78
2022/10/08 05:35:16;;;;;;;13.88;3.33;;;10.40;99.90;;;;;;4995985;28;20114;-78
2022/10/08 05:37:42;;;;;;;12.90;3.17;;;10.40;99.90;;;;;;4995588;28;20449;-78
2022/10/08 05:40:08;;;;;;;12.80;3.50;;;10.40;99.90;;;;;;4996552;28;20050;-81
2022/10/08 05:42:33;;;;;;;14.80;2.88;;;10.30;99.90;;;;;;4994679;28;20357;-78
2022/10/08 05:44:59;;;;;;;16.27;3.72;;;10.20;99.90;;;;;;4995051;28;20046;-79
2022/10/08 05:47:25;;;;;;;20.42;3.70;;;10.20;99.90;;;;;;4996319;28;20109;-78
2022/10/08 05:49:50;;;;;;;13.50;3.47;;;10.20;99.90;;;;;;4996353;28;20065;-80
2022/10/08 05:52:16;;;;;;;19.17;3.47;;;10.10;99.90;;;;;;4994111;28;20227;-79
2022/10/08 05:54:42;;;;;;;15.50;3.40;;;10.10;99.90;;;;;;4995626;28;20054;-78
2022/10/08 05:57:07;;;;;;;15.30;3.83;;;10.00;99.90;;;;;;4995861;28;20046;-79
2022/10/08 05:59:33;;;;;;;13.40;3.70;;;10.00;99.90;;;;;;4996074;28;20501;-76
2022/10/08 06:01:59;;;;;;;16.67;4.07;;;10.00;99.90;;;;;;4996443;28;20042;-79
2022/10/08 06:04:24;;;;;;;19.02;5.68;;;10.00;99.90;;;;;;5011532;28;20038;-79
2022/10/08 06:06:50;;;;;;;18.83;4.90;;;9.90;99.90;;;;;;4996925;28;20073;-79
2022/10/08 06:09:18;;;;;;;13.38;3.75;;;9.90;99.90;;;;;;5011944;28;20050;-77
2022/10/08 06:11:44;;;;;;;18.42;4.65;;;9.90;99.90;;;;;;4996567;28;20065;-78
2022/10/08 06:14:12;;;;;;;18.17;4.20;;;9.90;99.90;;;;;;4996126;28;20043;-77
2022/10/08 06:16:39;;;;;;;17.08;3.47;;;9.80;99.90;;;;;;4995516;28;20104;-78
2022/10/08 06:19:06;;;;;;;18.05;3.78;;;9.90;99.90;;;;;;4996087;28;20054;-77
2022/10/08 06:21:33;;;;;;;15.65;3.67;;;9.80;99.90;;;;;;4996873;28;20050;-78
2022/10/08 06:24:01;;;;;;;18.08;3.70;;;9.90;99.90;;;;;;4996004;28;20034;-77
2022/10/08 06:26:31;;;;;;;17.33;3.92;;;9.90;99.90;;;;;;4996321;28;20050;-77
2022/10/08 06:28:57;;;;;;;17.20;3.83;;;9.90;99.90;;;;;;4995674;28;20061;-79
2022/10/08 06:31:23;;;;;;;16.77;4.85;;;10.00;99.90;;;;;;4995916;28;20089;-76
2022/10/08 06:33:49;;;;;;;16.52;4.30;;;10.00;99.90;;;;;;4996180;28;20133;-76
2022/10/08 06:36:23;;;;;;;17.92;4.47;;;10.10;99.90;;;;;;4995974;28;20117;-79
2022/10/08 06:38:53;;;;;;;18.48;4.63;;;10.00;99.90;;;;;;4995495;28;20049;-78
2022/10/08 06:41:19;;;;;;;25.20;5.75;;;10.00;99.90;;;;;;4995581;28;20050;-79
2022/10/08 06:43:45;;;;;;;17.10;5.43;;;10.00;99.90;;;;;;4995343;28;20121;-78
2022/10/08 06:46:11;;;;;;;21.10;4.57;;;10.00;99.90;;;;;;4996443;28;20053;-80
2022/10/08 06:48:37;;;;;;;22.08;5.57;;;10.00;99.90;;;;;;4995233;28;20058;-79
2022/10/08 06:51:11;;;;;;;16.92;4.80;;;10.10;99.90;;;;;;4997491;28;20058;-79
2022/10/08 06:53:37;;;;;;;20.35;4.43;;;10.10;99.90;;;;;;5011857;28;20108;-82
2022/10/08 06:56:06;;;;;;;16.45;4.97;;;10.20;99.90;;;;;;4995623;28;20043;-79
2022/10/08 06:58:33;;;;;;;17.75;5.20;;;10.30;99.90;;;;;;4996675;28;20188;-78
2022/10/08 07:01:04;;;;;;;27.33;5.40;;;10.40;99.90;;;;;;4994841;28;20514;-79
2022/10/08 07:03:31;;;;;;;20.17;4.80;;;10.50;99.90;;;;;;4978497;28;20050;-80
2022/10/08 07:06:01;;;;;;;24.20;5.53;;;10.60;99.90;;;;;;4994648;28;20398;-79
2022/10/08 07:08:28;;;;;;;18.73;4.85;;;10.60;99.90;;;;;;4995169;28;20108;-80
2022/10/08 07:10:55;;;;;;;18.65;4.78;;;10.60;99.90;;;;;;4994844;28;20042;-77
2022/10/08 07:13:21;;;;;;;17.20;4.70;;;10.60;99.90;;;;;;4994531;28;20125;-79
2022/10/08 07:15:46;;;;;;;17.05;4.55;;;10.60;99.90;;;;;;4994889;28;20089;-77
2022/10/08 07:18:12;;;;;;;21.38;4.95;;;10.70;99.90;;;;;;4994641;28;20144;-77
2022/10/08 07:20:40;;;;;;;20.60;4.88;;;10.80;99.90;;;;;;4994613;28;20050;-76
2022/10/08 07:23:06;;;;;;;30.80;4.40;;;10.90;99.90;;;;;;4995570;28;20121;-78
2022/10/08 07:25:32;;;;;;;18.15;4.55;;;11.00;99.90;;;;;;4978035;28;20089;-78
2022/10/08 07:27:58;;;;;;;18.98;4.72;;;11.20;99.90;;;;;;4993981;28;20050;-79
2022/10/08 07:30:23;;;;;;;20.42;5.13;;;11.30;99.90;;;;;;4994000;28;20058;-76
2022/10/08 07:32:52;;;;;;;22.70;4.47;;;11.40;99.90;;;;;;4996787;28;20117;-77
2022/10/08 07:35:21;;;;;;;16.65;4.10;;;11.60;99.90;;;;;;4995308;28;20434;-75
2022/10/08 07:37:46;;;;;;;16.65;4.53;;;11.40;99.90;;;;;;4997021;28;20047;-79
2022/10/08 07:40:12;;;;;;;19.00;4.05;;;11.40;99.90;;;;;;4995444;28;20054;-79
2022/10/08 07:42:38;;;;;;;15.90;4.10;;;11.40;99.90;;;;;;4996006;28;20152;-79
2022/10/08 07:45:04;;;;;;;20.05;3.95;;;11.40;99.90;;;;;;4995393;28;20479;-79
2022/10/08 07:47:30;;;;;;;15.10;3.83;;;11.40;99.90;;;;;;4993965;28;20054;-76
2022/10/08 07:49:55;;;;;;;16.65;3.92;;;11.50;99.90;;;;;;4994689;28;20447;-77
2022/10/08 07:52:21;;;;;;;13.45;2.75;;;11.50;99.90;;;;;;4992512;28;20062;-76
2022/10/08 07:54:46;;;;;;;20.77;3.50;;;11.60;99.90;;;;;;4994011;28;20102;-78
2022/10/08 07:57:12;;;;;;;18.50;3.03;;;11.70;99.90;;;;;;4999726;28;20058;-79
2022/10/08 07:59:38;;;;;;;16.98;2.83;;;11.70;99.90;;;;;;4996869;28;20475;-80
2022/10/08 08:02:03;;;;;;;15.68;2.40;;;11.70;99.90;;;;;;4999578;28;20046;-81
2022/10/08 08:04:29;;;;;;;14.60;2.88;;;11.80;99.90;;;;;;4999056;28;20052;-76
2022/10/08 08:06:55;;;;;;;16.13;2.45;;;11.80;99.90;;;;;;5005072;28;20122;-79
2022/10/08 08:09:21;;;;;;;18.45;2.58;;;11.90;99.90;;;;;;5008405;28;20057;-75
2022/10/08 08:11:48;;;;;;;21.30;2.30;;;12.00;99.90;;;;;;5011488;28;20046;-81
2022/10/08 08:14:13;;;;;;;10.65;1.77;;;12.00;99.90;;;;;;5008206;28;20137;-81
2022/10/08 08:16:39;;;;;;;20.17;1.85;;;12.10;99.90;;;;;;4999876;28;20145;-80
2022/10/08 08:19:05;;;;;;;11.52;2.00;;;12.20;99.90;;;;;;5000361;28;20104;-78
2022/10/08 08:21:35;;;;;;;24.50;3.10;;;12.20;99.90;;;;;;4995971;28;20054;-80
2022/10/08 08:24:10;;;;;;;10.90;1.75;;;12.30;99.90;;;;;;4995925;28;20120;-76
2022/10/08 08:26:37;;;;;;;14.90;2.38;;;12.40;99.90;;;;;;5010484;28;20047;-75
2022/10/08 08:29:21;;;;;;;;;;;12.40;99.90;;;;;;4994834;28;20050;-79
2022/10/08 08:31:48;;;;;;;8.90;1.60;;;12.70;99.90;;;;;;4996234;28;19985;-77
2022/10/08 08:34:17;;;;;;;8.60;1.75;;;12.80;99.90;;;;;;4994079;28;20049;-77
2022/10/08 08:36:45;;;;;;;11.00;1.20;;;12.60;99.90;;;;;;4977571;28;20054;-78
2022/10/08 08:39:16;;;;;;;13.75;1.17;;;12.70;99.90;;;;;;4994219;28;20100;-77
2022/10/08 08:41:52;;;;;;;13.45;1.48;;;12.80;99.90;;;;;;4993863;28;20061;-77
2022/10/08 08:44:25;;;;;;;14.27;1.13;;;12.80;99.90;;;;;;5010076;28;20061;-76
2022/10/08 08:47:17;;;;;;;12.50;0.65;;;12.90;99.90;;;;;;4994757;28;20108;-77
2022/10/08 08:49:44;;;;;;;9.93;1.17;;;13.00;99.90;;;;;;4993233;28;20141;-75
2022/10/08 08:52:14;;;;;;;12.18;1.13;;;13.10;99.90;;;;;;4995847;28;20059;-79
2022/10/08 08:54:41;;;;;;;8.73;0.90;;;13.10;99.90;;;;;;4995715;28;20053;-75
2022/10/08 08:57:21;;;;;;;8.35;1.60;;;13.20;99.90;;;;;;4998071;28;20060;-77
2022/10/08 08:59:51;;;;;;;10.13;0.95;;;13.20;99.90;;;;;;5005128;28;20058;-80
2022/10/08 09:02:37;;;;;;;16.38;0.68;;;13.30;99.90;;;;;;5003266;28;20074;-78
2022/10/08 09:05:11;;;;;;;8.40;0.50;;;13.40;99.90;;;;;;5008139;28;20050;-78
2022/10/08 09:07:48;;;;;;;10.65;1.40;;;13.50;99.90;;;;;;5010010;28;20046;-76
2022/10/08 09:10:19;;;;;;;;;;;13.50;99.90;;;;;;5008486;28;20085;-78
2022/10/08 09:12:46;;;;;;;11.93;1.27;;;13.50;99.90;;;;;;5009110;28;19922;-76
2022/10/08 09:15:22;;;;;;;11.98;0.80;;;13.50;99.90;;;;;;5010427;28;20337;-76
2022/10/08 09:17:53;;;;;;;9.77;0.85;;;13.60;99.90;;;;;;5008396;28;20046;-77
2022/10/08 09:20:24;;;;;;;11.05;0.47;;;13.60;99.90;;;;;;5007354;28;20112;-77
2022/10/08 09:22:51;;;;;;;10.18;0.73;;;13.80;99.90;;;;;;5006515;28;20050;-80
2022/10/08 09:25:20;;;;;;;7.18;0.63;;;13.90;99.90;;;;;;4989649;28;20100;-78
2022/10/08 09:27:54;;;;;;;6.80;0.70;;;14.10;99.90;;;;;;5003705;28;20102;-77
2022/10/08 09:30:23;;;;;;;8.30;0.50;;;14.30;99.90;;;;;;5005694;28;20140;-80
2022/10/08 09:32:54;;;;;;;11.57;0.77;;;14.40;99.90;;;;;;5005651;28;20096;-76
2022/10/08 09:35:20;;;;;;;4.30;0.50;;;14.70;99.90;;;;;;5006437;28;20125;-76
2022/10/08 09:37:50;;;;;;;7.90;0.50;;;14.90;99.90;;;;;;5006628;28;20170;-77
2022/10/08 09:40:22;;;;;;;7.10;0.60;;;15.00;99.90;;;;;;5006014;28;20046;-79
2022/10/08 09:43:11;;;;;;;8.07;0.90;;;15.00;99.90;;;;;;5005215;28;20088;-76
2022/10/08 09:45:42;;;;;;;12.82;0.73;;;15.00;99.90;;;;;;5006138;28;20046;-77
2022/10/08 09:48:17;;;;;;;8.60;0.57;;;14.90;99.90;;;;;;5003541;28;20050;-78
2022/10/08 09:50:56;;;;;;;7.15;0.70;;;14.80;99.90;;;;;;5004065;28;20081;-77
2022/10/08 09:53:26;;;;;;;13.38;1.10;;;14.70;99.90;;;;;;5002880;28;20062;-80
2022/10/08 09:55:56;;;;;;;10.40;0.85;;;14.50;99.90;;;;;;5005904;28;20046;-78
2022/10/08 09:58:21;;;;;;;8.60;0.98;;;14.40;99.90;;;;;;5005811;28;20042;-80
2022/10/08 10:01:14;;;;;;;5.97;0.70;;;14.40;99.90;;;;;;5005042;28;20050;-78
2022/10/08 10:03:48;;;;;;;12.25;1.27;;;14.40;99.90;;;;;;5005382;28;20046;-78
2022/10/08 10:06:14;;;;;;;8.60;0.73;;;14.50;99.90;;;;;;5004589;28;20046;-80
2022/10/08 10:08:51;;;;;;;9.50;0.70;;;14.50;99.90;;;;;;5004826;28;20080;-79
2022/10/08 10:11:40;;;;;;;9.85;0.70;;;14.70;99.90;;;;;;5006644;28;20336;-77
2022/10/08 10:14:29;;;;;;;8.80;0.90;;;14.80;99.90;;;;;;5003980;28;20053;-74
2022/10/08 10:17:02;;;;;;;10.48;0.52;;;15.00;99.90;;;;;;5005335;28;20054;-76
2022/10/08 10:19:34;;;;;;;15.73;0.80;;;15.10;99.90;;;;;;5003764;28;20053;-75
2022/10/08 10:22:23;;;;;;;13.77;0.70;;;15.20;99.90;;;;;;5003275;28;20105;-76
2022/10/08 10:25:25;;;;;;;10.40;1.00;;;15.10;99.90;;;;;;5004670;28;20145;-77
2022/10/08 10:27:55;;;;;;;11.38;0.65;;;15.00;99.90;;;;;;4992067;28;20058;-77
2022/10/08 10:30:23;;;;;;;7.95;0.50;;;14.80;99.90;;;;;;5008398;28;20533;-77
2022/10/08 10:33:17;;;;;;;8.40;0.77;;;14.50;99.90;;;;;;5002840;28;20121;-75
2022/10/08 10:35:56;;;;;;;8.25;0.93;;;14.50;99.90;;;;;;4999254;28;20459;-75
2022/10/08 10:38:31;;;;;;;4.65;0.60;;;14.50;99.90;;;;;;4996636;28;20137;-76
2022/10/08 10:41:20;;;;;;;10.93;0.68;;;14.50;99.90;;;;;;4994311;28;20046;-76
2022/10/08 10:43:47;;;;;;;11.73;0.82;;;14.60;99.90;;;;;;4994919;28;20058;-77
2022/10/08 10:46:24;;;;;;;6.65;0.40;;;14.70;99.90;;;;;;4997706;28;20081;-74
2022/10/08 10:48:50;;;;;;;;;;;14.80;99.90;;;;;;5005892;28;20052;-75
2022/10/08 10:51:34;;;;;;;10.67;0.47;;;14.70;99.90;;;;;;5004545;28;19953;-76
2022/10/08 10:54:22;;;;;;;7.00;0.50;;;14.60;99.90;;;;;;5024961;28;20384;-78
2022/10/08 10:56:56;;;;;;;8.98;0.43;;;14.60;99.90;;;;;;5006680;28;20102;-77
2022/10/08 10:59:30;;;;;;;8.65;0.80;;;14.70;99.90;;;;;;5003132;28;20424;-78
2022/10/08 11:02:16;;;;;;;6.55;0.30;;;14.70;99.90;;;;;;5003819;28;20057;-77
2022/10/08 11:05:09;;;;;;;7.30;0.60;;;14.70;99.90;;;;;;5003613;28;20076;-77
2022/10/08 11:08:02;;;;;;;14.05;0.60;;;14.70;99.90;;;;;;5005331;28;20046;-75
2022/10/08 11:10:46;;;;;;;9.60;0.57;;;14.80;99.90;;;;;;5004798;28;20054;-80
2022/10/08 11:13:33;;;;;;;6.05;0.40;;;14.90;99.90;;;;;;5012892;28;20062;-76
2022/10/08 11:16:17;;;;;;;8.85;0.52;;;15.00;99.90;;;;;;5006690;28;20133;-78
2022/10/08 11:18:55;;;;;;;7.50;0.40;;;15.10;99.90;;;;;;5014267;28;20042;-75
2022/10/08 11:21:45;;;;;;;7.25;0.50;;;15.30;99.90;;;;;;4998989;28;20141;-75
2022/10/08 11:24:33;;;;;;;10.30;0.50;;;15.40;99.90;;;;;;5000821;28;20098;-79
2022/10/08 11:27:54;;;;;;;4.10;0.22;;;15.50;99.90;;;;;;4996331;28;20046;-75
2022/10/08 11:30:23;;;;;;;4.18;0.28;;;15.20;99.90;;;;;;4982969;28;20121;-77
2022/10/08 11:32:52;;;;;;;5.05;0.40;;;14.90;99.90;;;;;;4996612;28;20095;-76
2022/10/08 11:35:34;;;;;;;9.48;0.50;;;15.00;99.90;;;;;;4995529;28;20487;-76
2022/10/08 11:38:41;;;;;;;11.18;0.38;;;15.10;99.90;;;;;;4995793;28;20054;-76
2022/10/08 11:41:23;;;;;;;5.88;0.40;;;15.30;99.90;;;;;;4975169;28;20055;-75
2022/10/08 11:43:56;;;;;;;4.47;0.30;;;15.30;99.90;;;;;;4991951;28;20062;-76
2022/10/08 11:46:35;;;;;;;5.90;0.20;;;15.40;99.90;;;;;;4998091;28;20046;-78
2022/10/08 11:49:08;;;;;;;8.27;0.40;;;15.50;99.90;;;;;;4996428;28;20573;-76
2022/10/08 11:51:36;;;;;;;9.05;0.30;;;15.50;99.90;;;;;;4995891;28;20104;-78
2022/10/08 11:54:13;;;;;;;7.20;0.40;;;15.50;99.90;;;;;;4995644;28;20049;-76
2022/10/08 11:56:41;;;;;;;8.27;0.40;;;15.50;99.90;;;;;;4997134;28;20046;-77
2022/10/08 11:59:27;;;;;;;5.53;0.52;;;15.60;99.90;;;;;;5010321;28;20176;-77
2022/10/08 12:01:58;;;;;;;6.38;1.02;;;15.70;99.90;;;;;;4977646;28;20113;-76
2022/10/08 12:04:36;;;;;;;4.45;0.30;;;15.70;99.90;;;;;;4995697;28;20039;-77
2022/10/08 12:07:29;;;;;;;4.55;0.30;;;15.80;99.90;;;;;;4995511;28;20057;-78
2022/10/08 12:09:59;;;;;;;5.50;0.30;;;15.70;99.90;;;;;;4996746;28;20046;-79
2022/10/08 12:12:44;;;;;;;5.38;0.20;;;15.80;99.90;;;;;;5010759;28;20050;-76
2022/10/08 12:15:26;;;;;;;6.63;0.43;;;15.70;99.90;;;;;;4995545;28;20046;-78
2022/10/08 12:17:59;;;;;;;6.82;0.50;;;;;;;;;;4994547;28;20066;-79
2022/10/08 12:20:28;;;;;;;4.68;0.30;;;15.60;99.90;;;;;;4998015;28;20105;-80
2022/10/08 12:23:04;;;;;;;5.32;0.40;;;15.50;99.90;;;;;;4996414;28;20485;-81
2022/10/08 12:25:34;;;;;;;8.50;0.45;;;15.40;99.90;;;;;;4995583;28;20054;-80
2022/10/08 12:28:18;;;;;;;6.40;0.30;;;15.20;99.90;;;;;;4998424;28;20064;-79
2022/10/08 12:30:55;;;;;;;8.18;0.30;;;15.00;99.90;;;;;;4998091;28;20046;-78
2022/10/08 12:33:22;;;;;;;7.35;0.55;;;15.00;99.90;;;;;;4995966;28;20050;-81
2022/10/08 12:35:51;;;;;;;6.47;0.30;;;14.90;99.90;;;;;;4995962;28;20129;-80
2022/10/08 12:38:52;;;;;;;10.77;0.40;;;15.00;99.90;;;;;;4997451;28;20126;-78
2022/10/08 12:41:43;;;;;;;7.15;0.60;;;15.10;99.90;;;;;;4978721;28;20184;-79
2022/10/08 12:44:20;;;;;;;6.10;0.38;;;15.10;99.90;;;;;;5017205;28;20046;-79
2022/10/08 12:46:52;;;;;;;6.20;0.40;;;15.20;99.90;;;;;;5002221;28;20050;-78
2022/10/08 12:49:28;;;;;;;4.90;0.30;;;15.30;99.90;;;;;;5002678;28;20073;-80
2022/10/08 12:52:09;;;;;;;6.60;0.32;;;15.20;99.90;;;;;;5003187;28;20232;-77
2022/10/08 12:54:37;;;;;;;5.80;0.50;;;15.30;99.90;;;;;;5004324;28;20441;-79
2022/10/08 12:57:10;;;;;;;8.18;0.70;;;15.40;99.90;;;;;;5000871;28;20042;-79
2022/10/08 12:59:39;;;;;;;6.68;0.40;;;15.50;99.90;;;;;;5006800;28;20073;-78
2022/10/08 13:02:43;;;;;;;7.03;0.47;;;15.50;99.90;;;;;;5016602;28;20034;-78
2022/10/08 13:05:36;;;;;;;10.63;0.55;;;15.60;99.90;;;;;;5014594;28;20042;-79
2022/10/08 13:08:37;;;;;;;6.57;0.40;;;15.70;99.90;;;;;;5010164;28;20053;-80